This is the latest recevied weather packets stored in our database for station/object KM4KMS. If no packets are shown the sender has not sent any weather packets the latest 1 day(s).
| Time | Temp. | Humidity | Pressure | Rain* | Wind** | Luminosity | Snow |
|---|---|---|---|---|---|---|---|
| 1778035554 | 15.56° C | 94% | 1006.7 hPa | 0 mm | - | 0 W/m² | - |
| 1778035250 | 16.11° C | 93% | 1006.7 hPa | 0 mm | - | 0 W/m² | - |
| 1778034946 | 16.11° C | 92% | 1007.1 hPa | 0 mm | - | 0 W/m² | - |
| 1778034644 | 16.11° C | 91% | 1006.9 hPa | 0 mm | - | 0 W/m² | - |
| 1778034039 | 16.11° C | 90% | 1006.3 hPa | 0 mm | - | 0 W/m² | - |
| 1778033736 | 16.11° C | 90% | 1006.3 hPa | 0 mm | - | 0 W/m² | - |
| 1778033131 | 15° C | 97% | 1006.6 hPa | 0 mm | - | 0 W/m² | - |
| 1778032828 | 15° C | 98% | 1006.4 hPa | 0 mm | - | 0 W/m² | - |
| 1778032222 | 15° C | 98% | 1005.9 hPa | 0 mm | - | 0 W/m² | - |
| 1778031314 | 15° C | 99% | 1006 hPa | 0 mm | - | 0 W/m² | - |
| 1778030706 | 15° C | 99% | 1005.8 hPa | 0 mm | - | 0 W/m² | - |
| 1778030101 | 15° C | 99% | 1005.5 hPa | 0 mm | - | 0 W/m² | - |
| 1778029797 | 15° C | 99% | 1005.4 hPa | 0 mm | - | 0 W/m² | - |
| 1778029496 | 15° C | 99% | 1005.4 hPa | 0 mm | - | 0 W/m² | - |
| 1778028890 | 15° C | 98% | 1005.5 hPa | 1.27 mm | - | 0 W/m² | - |
| 1778028283 | 15.56° C | 97% | 1005.6 hPa | 0 mm | - | 0 W/m² | - |
| 1778027979 | 15.56° C | 96% | 1005.9 hPa | 0 mm | - | 0 W/m² | - |
| 1778027372 | 15.56° C | 94% | 1005.6 hPa | 3.05 mm | - | 0 W/m² | - |
| 1778027068 | 16.11° C | 94% | 1005.7 hPa | 7.87 mm | - | 1 W/m² | - |
| 1778026461 | 16.11° C | 91% | 1005.8 hPa | 1.78 mm | - | 3 W/m² | - |
| 1778024947 | 16.11° C | 94% | 1005.6 hPa | 3.56 mm | - | 15 W/m² | - |
| 1778024039 | 16.11° C | 93% | 1006.3 hPa | 1.27 mm | - | 3 W/m² | - |
| 1778022828 | 16.67° C | 91% | 1006 hPa | 4.83 mm | - | 10 W/m² | - |
| 1778022526 | 16.67° C | 89% | 1006.7 hPa | 4.32 mm | - | 8 W/m² | - |
| 1778021617 | 17.22° C | 87% | 1006.8 hPa | 4.32 mm | - | 11 W/m² | - |
* Rain latest hour (hover to see other rain measurements)
** Current wind speed in m/s (hover to see current wind gust speed)